createdAt,value
2019-03-09T00:02:50.160Z,100708.81
2019-03-09T00:05:18.925Z,100708.02
2019-03-09T00:07:47.543Z,100709.04
2019-03-09T00:10:16.103Z,100709.04
2019-03-09T00:12:47.646Z,100702.94
2019-03-09T00:15:16.360Z,100699.88
2019-03-09T00:17:44.984Z,100696.48
2019-03-09T00:20:13.917Z,100680.16
2019-03-09T00:22:44.188Z,100680.16
2019-03-09T00:25:24.200Z,100669.39
2019-03-09T00:27:57.437Z,100669.39
2019-03-09T00:30:30.444Z,100675.58
2019-03-09T00:33:01.834Z,100679.03
2019-03-09T00:35:30.485Z,100670.55
2019-03-09T00:37:59.045Z,100673.78
2019-03-09T00:40:27.627Z,100665.64
2019-03-09T00:42:58.853Z,100657.50
2019-03-09T00:45:27.581Z,100652.89
2019-03-09T00:47:56.213Z,100654.98
2019-03-09T00:50:27.487Z,100654.98
2019-03-09T00:52:58.856Z,100660.04
2019-03-09T00:55:27.818Z,100651.19
2019-03-09T00:57:56.398Z,100651.19
2019-03-09T01:00:28.130Z,100656.52
2019-03-09T01:02:59.459Z,100650.34
2019-03-09T01:05:28.037Z,100643.73
2019-03-09T01:07:56.650Z,100637.79
2019-03-09T01:10:25.390Z,100633.06
2019-03-09T01:12:54.044Z,100633.06
2019-03-09T01:15:22.758Z,100622.38
2019-03-09T01:17:51.424Z,100619.02
2019-03-09T01:20:20.355Z,100619.02
2019-03-09T01:22:51.957Z,100604.64
2019-03-09T01:25:21.683Z,100604.64
2019-03-09T01:27:53.070Z,100577.88
2019-03-09T01:30:24.653Z,100590.33
2019-03-09T01:32:56.342Z,100590.33
2019-03-09T01:35:27.686Z,100572.20
2019-03-09T01:37:56.409Z,100572.20
2019-03-09T01:40:27.753Z,100574.95
2019-03-09T01:42:59.333Z,100571.09
2019-03-09T01:45:28.360Z,100572.98
2019-03-09T01:47:57.392Z,100568.61
2019-03-09T01:50:26.027Z,100546.59
2019-03-09T01:52:54.783Z,100546.34
2019-03-09T01:55:23.365Z,100543.27
2019-03-09T01:57:52.008Z,100544.16
2019-03-09T02:00:21.171Z,100541.13
2019-03-09T02:02:53.031Z,100522.81
2019-03-09T02:05:21.644Z,100521.09
2019-03-09T02:07:50.685Z,100521.09
2019-03-09T02:10:22.376Z,100503.84
2019-03-09T02:12:53.746Z,100503.84
2019-03-09T02:15:22.380Z,100509.13
2019-03-09T02:17:51.034Z,100503.66
2019-03-09T02:20:22.725Z,100491.25
2019-03-09T02:22:54.022Z,100505.20
2019-03-09T02:25:22.648Z,100501.67
2019-03-09T02:27:54.161Z,100494.41
2019-03-09T02:30:25.474Z,100490.48
2019-03-09T02:32:57.009Z,100487.77
2019-03-09T02:35:28.242Z,100484.63
2019-03-09T02:37:58.449Z,100464.86
2019-03-09T02:40:30.522Z,100470.09
2019-03-09T02:43:02.006Z,100470.09
2019-03-09T02:45:33.576Z,100441.79
2019-03-09T02:48:05.875Z,100441.79
2019-03-09T02:50:34.582Z,100443.84
2019-03-09T02:53:05.959Z,100445.40
2019-03-09T02:55:38.784Z,100439.91
2019-03-09T02:58:10.369Z,100439.91
2019-03-09T03:00:40.644Z,100437.33
2019-03-09T03:03:09.950Z,100431.50
2019-03-09T03:05:41.737Z,100429.04
2019-03-09T03:08:13.315Z,100424.66
2019-03-09T03:10:42.132Z,100414.23
2019-03-09T03:13:10.744Z,100403.97
2019-03-09T03:15:39.469Z,100388.66
2019-03-09T03:18:11.113Z,100402.80
2019-03-09T03:20:42.654Z,100388.20
2019-03-09T03:23:11.279Z,100382.64
2019-03-09T03:25:40.195Z,100382.64
2019-03-09T03:28:11.924Z,100368.75
2019-03-09T03:30:40.640Z,100362.30
2019-03-09T03:33:11.968Z,100360.13
2019-03-09T03:35:40.573Z,100348.44
2019-03-09T03:38:12.078Z,100335.12
2019-03-09T03:40:43.555Z,100335.12
2019-03-09T03:43:12.110Z,100325.11
2019-03-09T03:45:43.233Z,100323.79
2019-03-09T03:48:14.535Z,100315.50
2019-03-09T03:50:43.150Z,100308.22
2019-03-09T03:53:11.781Z,100306.08
2019-03-09T03:55:45.033Z,100294.92
2019-03-09T03:58:16.705Z,100293.16
2019-03-09T04:00:45.659Z,100293.45
2019-03-09T04:03:14.252Z,100295.53
2019-03-09T04:05:42.991Z,100278.39
2019-03-09T04:08:11.913Z,100274.84
2019-03-09T04:10:40.557Z,100266.06
2019-03-09T04:13:12.748Z,100259.62
2019-03-09T04:15:41.366Z,100246.06
2019-03-09T04:18:12.750Z,100246.22
2019-03-09T04:20:41.635Z,100242.64
2019-03-09T04:23:13.249Z,100229.97
2019-03-09T04:25:41.888Z,100224.38
2019-03-09T04:28:13.559Z,100226.09
2019-03-09T04:30:42.181Z,100232.83
2019-03-09T04:33:14.010Z,100217.40
2019-03-09T04:35:42.604Z,100208.41
2019-03-09T04:38:14.191Z,100201.58
2019-03-09T04:40:45.854Z,100187.36
2019-03-09T04:43:16.121Z,100179.59
2019-03-09T04:45:47.695Z,100177.08
2019-03-09T04:48:19.379Z,100182.73
2019-03-09T04:50:50.630Z,100174.97
2019-03-09T04:53:22.175Z,100175.39
2019-03-09T04:55:50.833Z,100167.34
2019-03-09T04:58:22.110Z,100161.01
2019-03-09T05:00:50.680Z,100148.08
2019-03-09T05:03:22.294Z,100148.34
2019-03-09T05:05:53.694Z,100130.23
2019-03-09T05:08:28.282Z,100125.31
2019-03-09T05:11:00.297Z,100130.55
2019-03-09T05:13:32.137Z,100101.46
2019-03-09T05:16:03.395Z,100106.86
2019-03-09T05:18:34.592Z,100103.61
2019-03-09T05:21:03.341Z,100099.27
2019-03-09T05:23:35.118Z,100091.61
2019-03-09T05:26:09.441Z,100086.00
2019-03-09T05:28:44.304Z,100094.03
2019-03-09T05:31:12.912Z,100080.81
2019-03-09T05:33:44.490Z,100078.63
2019-03-09T05:36:13.456Z,100071.59
2019-03-09T05:38:42.021Z,100061.47
2019-03-09T05:41:10.632Z,100048.97
2019-03-09T05:43:42.538Z,100047.16
2019-03-09T05:46:11.156Z,100028.55
2019-03-09T05:48:42.844Z,100037.05
2019-03-09T05:51:11.587Z,100036.98
2019-03-09T05:53:40.215Z,100016.63
2019-03-09T05:56:09.764Z,100016.63
2019-03-09T05:58:38.390Z,100023.28
2019-03-09T06:01:09.911Z,100019.63
2019-03-09T06:03:41.182Z,100014.95
2019-03-09T06:06:12.619Z,100008.48
2019-03-09T06:08:44.108Z,99998.53
2019-03-09T06:11:13.138Z,99997.92
2019-03-09T06:13:41.761Z,99994.50
2019-03-09T06:16:13.857Z,99989.40
2019-03-09T06:18:42.470Z,99984.10
2019-03-09T06:21:13.845Z,99990.23
2019-03-09T06:23:42.463Z,99987.42
2019-03-09T06:26:11.028Z,99982.81
2019-03-09T06:28:42.394Z,99982.81
2019-03-09T06:31:10.969Z,99982.23
2019-03-09T06:33:39.845Z,99972.31
2019-03-09T06:36:17.637Z,99966.17
2019-03-09T06:38:57.391Z,99966.17
2019-03-09T06:41:31.872Z,99966.30
2019-03-09T06:44:00.493Z,99966.86
2019-03-09T06:46:29.218Z,99963.44
2019-03-09T06:48:57.857Z,99957.66
2019-03-09T06:51:26.562Z,99957.66
2019-03-09T06:53:57.730Z,99960.69
2019-03-09T06:56:29.341Z,99953.42
2019-03-09T06:59:00.769Z,99953.42
2019-03-09T07:01:29.335Z,99961.14
2019-03-09T07:04:00.821Z,99951.80
2019-03-09T07:06:29.445Z,99951.80
2019-03-09T07:09:01.057Z,99940.11
2019-03-09T07:11:32.947Z,99938.44
2019-03-09T07:14:39.685Z,99940.80
2019-03-09T07:17:08.394Z,99945.19
2019-03-09T07:19:38.558Z,99934.05
2019-03-09T07:22:08.626Z,99903.38
2019-03-09T07:24:48.017Z,99903.38
2019-03-09T07:27:17.141Z,99904.30
2019-03-09T07:29:48.671Z,99903.33
2019-03-09T07:32:20.211Z,99898.26
2019-03-09T07:34:48.787Z,99891.63
2019-03-09T07:37:20.212Z,99893.17
2019-03-09T07:39:51.774Z,99911.24
2019-03-09T07:42:23.064Z,99911.24
2019-03-09T07:44:51.684Z,99909.02
2019-03-09T07:47:20.298Z,99908.91
2019-03-09T07:49:52.003Z,99904.75
2019-03-09T07:52:50.505Z,99912.92
2019-03-09T07:55:22.843Z,99900.06
2019-03-09T07:57:57.680Z,99907.13
2019-03-09T08:00:26.290Z,99907.13
2019-03-09T08:02:54.916Z,99893.06
2019-03-09T08:05:26.411Z,99881.55
2019-03-09T08:07:57.995Z,99888.48
2019-03-09T08:10:28.690Z,99894.48
2019-03-09T08:12:57.476Z,99888.09
2019-03-09T08:15:28.849Z,99887.86
2019-03-09T08:18:00.530Z,99898.72
2019-03-09T08:20:29.167Z,99897.95
2019-03-09T08:23:00.864Z,99903.02
2019-03-09T08:25:32.233Z,99905.61
2019-03-09T08:28:00.871Z,99915.51
2019-03-09T08:30:31.969Z,99930.77
2019-03-09T08:33:03.410Z,99918.63
2019-03-09T08:35:35.033Z,99935.00
2019-03-09T08:38:03.589Z,99918.50
2019-03-09T08:40:34.949Z,99919.75
2019-03-09T08:43:03.499Z,99926.98
2019-03-09T08:45:32.438Z,99934.39
2019-03-09T08:48:00.999Z,99921.59
2019-03-09T08:50:29.973Z,99932.09
2019-03-09T08:52:58.647Z,99909.06
2019-03-09T08:55:27.270Z,99928.84
2019-03-09T08:57:55.808Z,99926.05
2019-03-09T09:00:32.594Z,99940.42
2019-03-09T09:03:01.282Z,99951.34
2019-03-09T09:05:29.926Z,99937.95
2019-03-09T09:07:58.469Z,99958.48
2019-03-09T09:10:27.212Z,99955.40
2019-03-09T09:12:55.842Z,99961.41
2019-03-09T09:15:24.476Z,99961.98
2019-03-09T09:17:53.183Z,99948.02
2019-03-09T09:20:24.053Z,99946.59
2019-03-09T09:22:52.772Z,99959.33
2019-03-09T09:25:24.951Z,99962.23
2019-03-09T09:27:55.234Z,99963.98
2019-03-09T09:30:28.771Z,99969.10
2019-03-09T09:32:57.406Z,99964.23
2019-03-09T09:35:26.117Z,99976.45
2019-03-09T09:37:54.651Z,99958.72
2019-03-09T09:40:27.703Z,99975.77
2019-03-09T09:42:56.320Z,99965.21
2019-03-09T09:45:28.071Z,99967.84
2019-03-09T09:47:56.684Z,99965.93
2019-03-09T09:50:28.376Z,99954.22
2019-03-09T09:52:56.991Z,99970.83
2019-03-09T09:55:25.602Z,99973.38
2019-03-09T09:57:57.498Z,99977.39
2019-03-09T10:00:29.691Z,99976.44
2019-03-09T10:02:58.239Z,99984.49
2019-03-09T10:05:27.091Z,99999.28
2019-03-09T10:07:58.318Z,99989.17
2019-03-09T10:10:30.101Z,100000.77
2019-03-09T10:12:58.763Z,99995.42
2019-03-09T10:15:30.007Z,99990.11
2019-03-09T10:17:58.524Z,99991.81
2019-03-09T10:20:30.347Z,99986.82
2019-03-09T10:23:04.529Z,99992.08
2019-03-09T10:25:35.551Z,99998.59
2019-03-09T10:28:04.187Z,100003.30
2019-03-09T10:30:32.940Z,100006.25
2019-03-09T10:33:01.891Z,100020.92
2019-03-09T10:35:30.467Z,100019.16
2019-03-09T10:37:59.419Z,100013.48
2019-03-09T10:40:31.541Z,100016.39
2019-03-09T10:43:00.251Z,100013.32
2019-03-09T10:45:28.869Z,100013.58
2019-03-09T10:47:57.805Z,100020.88
2019-03-09T10:50:29.473Z,100019.34
2019-03-09T10:53:01.004Z,100030.03
2019-03-09T10:55:31.817Z,100035.08
2019-03-09T10:58:00.493Z,100023.16
2019-03-09T11:00:32.395Z,100023.95
2019-03-09T11:03:01.633Z,100023.52
2019-03-09T11:05:31.285Z,100035.22
2019-03-09T11:08:00.642Z,100019.50
2019-03-09T11:10:29.402Z,100035.05
2019-03-09T11:13:00.761Z,100044.90
2019-03-09T11:15:32.549Z,100054.11
2019-03-09T11:18:03.916Z,100043.42
2019-03-09T11:20:38.613Z,100044.69
2019-03-09T11:23:10.339Z,100038.73
2019-03-09T11:25:39.168Z,100036.94
2019-03-09T11:28:11.163Z,100026.73
2019-03-09T11:30:40.522Z,100039.47
2019-03-09T11:33:12.181Z,100040.75
2019-03-09T11:35:43.770Z,100028.81
2019-03-09T11:38:12.400Z,100034.20
2019-03-09T11:40:43.974Z,100040.10
2019-03-09T11:43:12.536Z,100039.30
2019-03-09T11:45:44.176Z,100037.74
2019-03-09T11:48:13.044Z,100031.83
2019-03-09T11:50:41.627Z,100034.27
2019-03-09T11:53:13.566Z,100025.58
2019-03-09T11:55:42.133Z,100019.63
2019-03-09T11:58:13.846Z,100010.97
2019-03-09T12:00:44.281Z,100015.72
2019-03-09T12:03:15.865Z,100005.27
2019-03-09T12:05:44.478Z,100008.62
2019-03-09T12:08:13.055Z,100024.52
2019-03-09T12:10:44.890Z,100015.17
2019-03-09T12:13:14.845Z,100019.55
2019-03-09T12:15:46.367Z,100008.67
2019-03-09T12:18:17.921Z,100016.33
2019-03-09T12:20:46.529Z,100023.45
2019-03-09T12:23:20.990Z,100017.57
2019-03-09T12:25:50.575Z,100018.25
2019-03-09T12:28:19.551Z,100023.78
2019-03-09T12:30:48.167Z,100006.32
2019-03-09T12:33:19.482Z,100015.69
2019-03-09T12:35:48.093Z,100010.53
2019-03-09T12:38:16.674Z,100025.03
2019-03-09T12:40:45.305Z,100007.36
2019-03-09T12:43:16.938Z,100020.19
2019-03-09T12:45:45.809Z,100018.42
2019-03-09T12:48:14.724Z,100009.44
2019-03-09T12:50:43.404Z,100005.84
2019-03-09T12:53:14.067Z,100014.44
2019-03-09T12:55:42.704Z,100021.33
2019-03-09T12:58:11.344Z,100013.00
2019-03-09T13:00:40.465Z,100004.91
2019-03-09T13:03:09.131Z,100018.31
2019-03-09T13:05:39.217Z,100007.50
2019-03-09T13:08:09.627Z,100015.42
2019-03-09T13:10:40.546Z,100014.08
2019-03-09T13:13:13.351Z,100005.92
2019-03-09T13:15:43.347Z,100012.91
2019-03-09T13:18:16.507Z,100000.05
2019-03-09T13:20:45.307Z,100000.70
2019-03-09T13:23:13.959Z,99995.05
2019-03-09T13:25:45.545Z,99989.61
2019-03-09T13:28:14.181Z,99988.98
2019-03-09T13:30:42.797Z,99977.44
2019-03-09T13:33:11.441Z,99986.40
2019-03-09T13:35:43.071Z,99964.89
2019-03-09T13:38:15.072Z,99946.89
2019-03-09T13:40:43.702Z,99945.72
2019-03-09T13:43:13.388Z,99943.06
2019-03-09T13:45:44.654Z,99949.59
2019-03-09T13:48:14.778Z,99937.50
2019-03-09T13:50:43.427Z,99934.09
2019-03-09T13:53:14.804Z,99935.91
2019-03-09T13:55:43.426Z,99930.08
2019-03-09T13:58:14.808Z,99926.88
2019-03-09T14:00:46.426Z,99918.66
2019-03-09T14:03:17.814Z,99927.75
2019-03-09T14:05:49.121Z,99917.48
2019-03-09T14:08:17.762Z,99909.66
2019-03-09T14:10:46.381Z,99909.58
2019-03-09T14:13:17.883Z,99900.84
2019-03-09T14:15:49.594Z,99896.98
2019-03-09T14:18:21.534Z,99902.04
2019-03-09T14:20:50.222Z,99884.59
2019-03-09T14:23:18.862Z,99873.66
2019-03-09T14:25:47.432Z,99866.65
2019-03-09T14:28:16.025Z,99853.63
2019-03-09T14:30:47.619Z,99842.63
2019-03-09T14:33:16.331Z,99843.69
2019-03-09T14:35:48.294Z,99841.72
2019-03-09T14:38:16.846Z,99851.81
2019-03-09T14:40:45.458Z,99840.48
2019-03-09T14:43:16.760Z,99823.48
2019-03-09T14:45:48.355Z,99836.56
2019-03-09T14:48:19.532Z,99828.14
2019-03-09T14:50:51.051Z,99838.18
2019-03-09T14:53:22.316Z,99815.31
2019-03-09T14:55:54.517Z,99819.81
2019-03-09T14:58:26.614Z,99821.34
2019-03-09T15:00:58.002Z,99822.25
2019-03-09T15:03:26.719Z,99821.81
2019-03-09T15:05:55.334Z,99803.63
2019-03-09T15:08:26.706Z,99798.72
2019-03-09T15:10:58.613Z,99801.02
2019-03-09T15:13:29.821Z,99796.98
2019-03-09T15:15:58.503Z,99798.04
2019-03-09T15:18:27.119Z,99790.77
2019-03-09T15:20:55.748Z,99779.66
2019-03-09T15:23:27.239Z,99774.44
2019-03-09T15:25:58.858Z,99772.13
2019-03-09T15:28:28.491Z,99766.04
2019-03-09T15:31:00.108Z,99758.98
2019-03-09T15:33:29.260Z,99764.02
2019-03-09T15:36:01.219Z,99761.62
2019-03-09T15:38:32.638Z,99761.72
2019-03-09T15:41:04.428Z,99755.95
2019-03-09T15:43:35.823Z,99741.92
2019-03-09T15:46:07.661Z,99739.77
2019-03-09T15:48:39.523Z,99724.68
2019-03-09T15:51:08.151Z,99721.17
2019-03-09T15:53:36.864Z,99719.67
2019-03-09T15:56:08.365Z,99735.96
2019-03-09T15:58:38.520Z,99763.31
2019-03-09T16:01:09.809Z,99799.84
2019-03-09T16:03:38.374Z,99772.69
2019-03-09T16:06:10.115Z,99753.68
2019-03-09T16:08:38.758Z,99683.73
2019-03-09T16:11:07.715Z,99693.03
2019-03-09T16:13:40.695Z,99699.20
2019-03-09T16:16:09.333Z,99717.30
2019-03-09T16:18:44.013Z,99753.58
2019-03-09T16:21:13.104Z,99759.98
2019-03-09T16:23:44.706Z,99777.55
2019-03-09T16:26:13.440Z,99794.52
2019-03-09T16:28:42.832Z,99795.48
2019-03-09T16:31:14.450Z,99836.89
2019-03-09T16:33:45.945Z,99831.79
2019-03-09T16:36:17.963Z,99838.27
2019-03-09T16:38:46.593Z,99842.83
2019-03-09T16:41:15.630Z,99842.83
2019-03-09T16:43:44.203Z,99821.28
2019-03-09T16:46:12.788Z,99808.52
2019-03-09T16:48:41.803Z,99788.70
2019-03-09T16:51:10.429Z,99797.55
2019-03-09T16:53:39.037Z,99778.80
2019-03-09T16:56:07.695Z,99759.92
2019-03-09T16:58:36.266Z,99745.30
2019-03-09T17:01:09.210Z,99702.47
2019-03-09T17:03:40.579Z,99705.96
2019-03-09T17:06:12.414Z,99695.95
2019-03-09T17:08:44.061Z,99682.58
2019-03-09T17:11:14.186Z,99682.58
2019-03-09T17:13:42.743Z,99673.37
2019-03-09T17:16:11.442Z,99672.70
2019-03-09T17:18:39.983Z,99672.70
2019-03-09T17:21:11.162Z,99686.39
2019-03-09T17:23:39.709Z,99679.92
2019-03-09T17:26:11.260Z,99659.14
2019-03-09T17:28:39.878Z,99666.36
2019-03-09T17:31:11.440Z,99647.51
2019-03-09T17:33:40.104Z,99647.51
2019-03-09T17:36:08.691Z,99621.71
2019-03-09T17:38:40.201Z,99616.16
2019-03-09T17:41:09.154Z,99607.50
2019-03-09T17:43:39.262Z,99610.73
2019-03-09T17:46:10.644Z,99609.70
2019-03-09T17:48:41.946Z,99616.62
2019-03-09T17:51:13.548Z,99647.02
2019-03-09T17:53:42.165Z,99681.14
2019-03-09T17:56:13.651Z,99706.88
2019-03-09T17:58:45.368Z,99699.88
2019-03-09T18:01:13.950Z,99698.59
2019-03-09T18:03:42.503Z,99729.41
2019-03-09T18:06:14.567Z,99756.17
2019-03-09T18:08:43.114Z,99725.05
2019-03-09T18:11:12.317Z,99725.05
2019-03-09T18:13:40.950Z,99654.75
2019-03-09T18:16:12.949Z,99654.75
2019-03-09T18:18:41.567Z,99615.34
2019-03-09T18:21:12.954Z,99614.89
2019-03-09T18:23:41.585Z,99593.87
2019-03-09T18:26:13.190Z,99593.87
2019-03-09T18:28:42.424Z,99607.22
2019-03-09T18:31:11.031Z,99601.39
2019-03-09T18:33:39.614Z,99606.11
2019-03-09T18:36:08.270Z,99609.25
2019-03-09T18:38:40.564Z,99609.25
2019-03-09T18:41:12.061Z,99609.61
2019-03-09T18:43:40.674Z,99609.61
2019-03-09T18:46:09.285Z,99625.80
2019-03-09T18:48:39.453Z,99655.19
2019-03-09T18:51:10.724Z,99662.38
2019-03-09T18:53:39.750Z,99656.94
2019-03-09T18:56:11.431Z,99646.16
2019-03-09T18:58:43.014Z,99649.03
2019-03-09T19:01:11.946Z,99645.67
2019-03-09T19:03:40.977Z,99635.66
2019-03-09T19:06:09.612Z,99610.85
2019-03-09T19:08:38.228Z,99613.78
2019-03-09T19:11:09.515Z,99621.54
2019-03-09T19:13:41.508Z,99626.41
2019-03-09T19:16:13.093Z,99611.45
2019-03-09T19:18:41.701Z,99626.80
2019-03-09T19:21:10.533Z,99628.05
2019-03-09T19:23:39.581Z,99611.48
2019-03-09T19:26:09.860Z,99621.71
2019-03-09T19:28:38.500Z,99626.57
2019-03-09T19:31:08.676Z,99635.47
2019-03-09T19:33:40.801Z,99647.36
2019-03-09T19:36:09.344Z,99620.95
2019-03-09T19:38:41.464Z,99620.95
2019-03-09T19:41:09.995Z,99617.14
2019-03-09T19:43:40.409Z,99619.13
2019-03-09T19:46:12.178Z,99624.06
2019-03-09T19:48:43.770Z,99613.41
2019-03-09T19:51:15.663Z,99628.69
2019-03-09T19:53:44.282Z,99614.52
2019-03-09T19:56:13.005Z,99626.29
2019-03-09T19:58:44.596Z,99622.59
2019-03-09T20:01:16.185Z,99622.98
2019-03-09T20:03:45.210Z,99637.66
2019-03-09T20:06:13.819Z,99635.33
2019-03-09T20:08:45.409Z,99641.40
2019-03-09T20:11:15.186Z,99644.17
2019-03-09T20:13:46.553Z,99647.82
2019-03-09T20:16:17.922Z,99653.62
2019-03-09T20:18:49.221Z,99665.12
2019-03-09T20:21:17.842Z,99672.57
2019-03-09T20:23:46.954Z,99665.65
2019-03-09T20:26:15.598Z,99665.31
2019-03-09T20:28:44.213Z,99667.22
2019-03-09T20:31:13.226Z,99680.37
2019-03-09T20:33:41.845Z,99680.37
2019-03-09T20:36:10.859Z,99697.45
2019-03-09T20:38:39.488Z,99707.61
2019-03-09T20:41:14.136Z,99707.61
2019-03-09T20:43:46.128Z,99706.36
2019-03-09T20:46:18.128Z,99717.80
2019-03-09T20:48:49.510Z,99744.48
2019-03-09T20:51:18.120Z,99744.92
2019-03-09T20:53:50.134Z,99744.92
2019-03-09T20:56:18.730Z,99771.13
2019-03-09T20:58:50.512Z,99753.53
2019-03-09T21:01:19.130Z,99778.88
2019-03-09T21:04:11.554Z,99793.89
2019-03-09T21:06:40.130Z,99793.89
2019-03-09T21:09:08.962Z,99826.81
2019-03-09T21:11:40.669Z,99832.27
2019-03-09T21:14:09.394Z,99858.92
2019-03-09T21:16:44.039Z,99880.64
2019-03-09T21:19:12.791Z,99892.91
2019-03-09T21:21:41.367Z,99933.04
2019-03-09T21:24:10.388Z,99952.63
2019-03-09T21:26:39.404Z,99952.63
2019-03-09T21:29:11.606Z,100001.58
2019-03-09T21:31:42.982Z,100001.58
2019-03-09T21:34:14.782Z,100015.50
2019-03-09T21:36:43.399Z,100015.50
2019-03-09T21:39:12.042Z,100057.97
2019-03-09T21:41:40.665Z,100057.97
2019-03-09T21:44:09.311Z,100077.50
2019-03-09T21:46:40.698Z,100078.19
2019-03-09T21:49:12.415Z,100078.55
2019-03-09T21:51:41.241Z,100087.44
2019-03-09T21:54:12.614Z,100103.86
2019-03-09T21:56:41.189Z,100118.21
2019-03-09T21:59:13.131Z,100111.76
2019-03-09T22:01:41.743Z,100130.56
2019-03-09T22:04:13.430Z,100153.07
2019-03-09T22:06:45.005Z,100157.78
2019-03-09T22:09:16.416Z,100157.78
2019-03-09T22:11:44.985Z,100168.63
2019-03-09T22:14:16.361Z,100196.34
2019-03-09T22:16:44.970Z,100201.31
2019-03-09T22:19:16.364Z,100201.31
2019-03-09T22:21:44.991Z,100230.16
2019-03-09T22:24:16.824Z,100231.77
2019-03-09T22:26:48.480Z,100232.03
2019-03-09T22:29:17.110Z,100232.03
2019-03-09T22:31:48.599Z,100243.67
2019-03-09T22:34:19.982Z,100267.66
2019-03-09T22:37:03.233Z,100256.50
2019-03-09T22:39:31.908Z,100263.55
2019-03-09T22:42:00.881Z,100263.55
2019-03-09T22:44:29.491Z,100264.30
2019-03-09T22:46:58.106Z,100264.30
2019-03-09T22:49:29.781Z,100261.92
2019-03-09T22:52:00.771Z,100266.53
2019-03-09T22:54:32.328Z,100255.62
2019-03-09T22:57:01.343Z,100276.05
2019-03-09T22:59:32.722Z,100276.05
2019-03-09T23:02:01.847Z,100265.33
2019-03-09T23:04:30.875Z,100272.08
2019-03-09T23:07:02.418Z,100279.70
2019-03-09T23:09:34.148Z,100279.70
2019-03-09T23:12:03.029Z,100270.84
2019-03-09T23:14:34.745Z,100276.97
2019-03-09T23:17:03.372Z,100279.20
2019-03-09T23:19:36.907Z,100279.43
2019-03-09T23:22:05.524Z,100279.43
2019-03-09T23:24:36.783Z,100281.45
2019-03-09T23:27:07.647Z,100291.87
2019-03-09T23:29:36.273Z,100286.38
2019-03-09T23:32:04.923Z,100289.06
2019-03-09T23:34:39.341Z,100295.95
2019-03-09T23:37:11.130Z,100303.42
2019-03-09T23:39:42.347Z,100303.42
2019-03-09T23:42:10.915Z,100311.93
2019-03-09T23:44:39.459Z,100317.98
2019-03-09T23:47:14.193Z,100307.48
2019-03-09T23:49:46.368Z,100316.50
2019-03-09T23:52:14.932Z,100316.50
2019-03-09T23:54:43.515Z,100316.34
2019-03-09T23:57:12.124Z,100317.59
2019-03-09T23:59:40.673Z,100326.72
